Route Details

Aircraft Information
Group: North America Fleet
Types: B738, B752, B762, B763
Route Data
Distance: 1549nm
Duration: 3h 50m
Origin METAR: KSFO 152356Z 31017KT 10SM FEW011 24/12 A2980 RMK AO2 SLP092 T02440122 10244 20206 56015
Dest. METAR: KRFD 152354Z 00000KT 10SM OVC095 23/17 A3008 RMK AO2 SLP184 T02330167 10267 20233 50002 $
Freight Data
(for Aug 16, 2022)
Load Factor:
23%
Manifested Cargo: 19,514lbs
Financial History
Total Freight: 0lbs
Average Load: 0lbs/flt
Fuel Used: 0lbs
Avg. Fuel Used: 0lbs/flt
Fuel Expense: $0
Avg. Fuel Expense: $0
Avg. Fuel Cost: $0/lbs
Total Gross Income: $0
Pilot Pay: $0
Total Expenses: $0
Total Revenue: $0
Average Revenue: $0

Capitol Logistics 470




KSFO
San Francisco International Airport
San Francisco, California
KRFD
Chicago/Rockford International Airport
Rockford, Illinois

Activity Log

Date Flight Route Aircraft Duration
No Flights Yet